Time;durP1;ratioP1;P1;durP2;ratioP2;P2;SDS_P1;SDS_P2;PMS_P1;PMS_P2;Temp;Humidity;BMP_temperature;BMP_pressure;BME280_temperature;BME280_humidity;BME280_pressure;Samples;Min_cycle;Max_cycle;Signal;HPM_P1;HPM_P2
2022/07/04 00:02:24;;;;;;;0.88;0.40;;;23.30;61.80;;;;;;5034539;28;20046;-60
2022/07/04 00:04:49;;;;;;;1.33;0.60;;;23.30;61.80;;;;;;5033954;28;20041;-60
2022/07/04 00:07:15;;;;;;;2.08;0.70;;;23.20;61.80;;;;;;5033207;28;20133;-60
2022/07/04 00:09:40;;;;;;;0.68;0.38;;;23.20;61.80;;;;;;5033967;28;20136;-60
2022/07/04 00:12:06;;;;;;;0.82;0.40;;;23.20;61.80;;;;;;5033579;28;20047;-60
2022/07/04 00:14:32;;;;;;;1.15;0.40;;;23.20;61.80;;;;;;5034011;28;20037;-60
2022/07/04 00:16:57;;;;;;;1.10;0.35;;;23.20;61.80;;;;;;5033747;28;20050;-60
2022/07/04 00:19:23;;;;;;;0.80;0.60;;;23.20;61.80;;;;;;5032243;28;20037;-60
2022/07/04 00:21:48;;;;;;;2.10;0.50;;;23.20;61.80;;;;;;5033419;28;20042;-60
2022/07/04 00:24:14;;;;;;;1.48;0.55;;;23.20;61.80;;;;;;5034184;28;20045;-60
2022/07/04 00:26:39;;;;;;;1.63;0.60;;;23.20;61.80;;;;;;5032741;28;20412;-60
2022/07/04 00:29:05;;;;;;;1.35;0.45;;;23.20;61.80;;;;;;5033751;28;20050;-60
2022/07/04 00:31:30;;;;;;;0.65;0.40;;;23.20;61.80;;;;;;5033442;28;20095;-60
2022/07/04 00:33:56;;;;;;;1.23;0.50;;;23.20;61.80;;;;;;5032879;28;20041;-60
2022/07/04 00:36:22;;;;;;;1.73;0.50;;;23.20;61.80;;;;;;5033891;28;20489;-61
2022/07/04 00:38:47;;;;;;;1.23;0.50;;;23.20;61.80;;;;;;5031975;28;20485;-60
2022/07/04 00:41:13;;;;;;;0.98;0.50;;;23.20;61.90;;;;;;5031534;28;20045;-60
2022/07/04 00:43:38;;;;;;;1.02;0.52;;;23.20;61.80;;;;;;5033617;28;20045;-60
2022/07/04 00:46:05;;;;;;;1.88;0.60;;;23.20;61.80;;;;;;5033182;28;20046;-60
2022/07/04 00:48:31;;;;;;;0.90;0.50;;;23.20;61.90;;;;;;5032737;28;20049;-60
2022/07/04 00:50:57;;;;;;;1.15;0.50;;;23.20;61.90;;;;;;5032844;28;20383;-60
2022/07/04 00:53:25;;;;;;;0.50;0.40;;;23.10;61.80;;;;;;5032090;28;20051;-60
2022/07/04 00:55:51;;;;;;;;;;;23.10;61.90;;;;;;5031480;28;20046;-60
2022/07/04 00:58:21;;;;;;;0.95;0.60;;;23.10;61.80;;;;;;5032691;28;20261;-60
2022/07/04 01:00:47;;;;;;;0.63;0.40;;;23.10;61.90;;;;;;5015532;28;20514;-60
2022/07/04 01:03:12;;;;;;;1.55;0.40;;;23.10;61.90;;;;;;5032112;28;20043;-60
2022/07/04 01:05:38;;;;;;;0.32;0.32;;;23.10;61.90;;;;;;5033130;28;20045;-60
2022/07/04 01:08:04;;;;;;;1.00;0.50;;;23.10;61.90;;;;;;5032150;28;20117;-60
2022/07/04 01:10:29;;;;;;;1.17;0.50;;;23.10;61.90;;;;;;5032380;28;20116;-60
2022/07/04 01:12:55;;;;;;;1.20;0.50;;;23.10;61.90;;;;;;5032505;28;20116;-59
2022/07/04 01:15:21;;;;;;;1.35;0.50;;;23.10;61.90;;;;;;5031921;28;20112;-60
2022/07/04 01:17:46;;;;;;;1.10;0.52;;;23.00;61.90;;;;;;5032343;28;20033;-60
2022/07/04 01:20:13;;;;;;;1.50;0.60;;;23.10;62.60;;;;;;5032911;28;20075;-60
2022/07/04 01:22:38;;;;;;;0.75;0.50;;;23.00;61.90;;;;;;5031503;28;20961;-60
2022/07/04 01:25:04;;;;;;;1.98;0.60;;;23.00;61.90;;;;;;5031775;28;20128;-60
2022/07/04 01:27:30;;;;;;;1.23;0.50;;;23.00;61.90;;;;;;5032327;28;20121;-60
2022/07/04 01:29:55;;;;;;;1.63;0.50;;;23.00;61.90;;;;;;5030845;28;20130;-60
2022/07/04 01:32:21;;;;;;;1.60;0.45;;;23.00;61.90;;;;;;5032558;28;20042;-59
2022/07/04 01:34:46;;;;;;;0.95;0.50;;;23.00;61.90;;;;;;5031828;28;20037;-60
2022/07/04 01:37:12;;;;;;;0.90;0.50;;;23.00;62.00;;;;;;5031437;28;20048;-60
2022/07/04 01:39:38;;;;;;;1.15;0.50;;;23.00;62.00;;;;;;5032449;28;20050;-60
2022/07/04 01:42:04;;;;;;;0.90;0.40;;;23.00;62.00;;;;;;5031847;28;20481;-61
2022/07/04 01:44:29;;;;;;;0.80;0.52;;;23.00;62.00;;;;;;5031118;28;20429;-60
2022/07/04 01:46:55;;;;;;;0.82;0.50;;;23.00;62.00;;;;;;5031705;28;20509;-60
2022/07/04 01:49:20;;;;;;;1.35;0.50;;;23.00;62.00;;;;;;5030843;28;20045;-61
2022/07/04 01:51:47;;;;;;;0.80;0.50;;;23.00;62.00;;;;;;5031529;28;20041;-60
2022/07/04 01:54:12;;;;;;;1.15;0.40;;;23.00;62.00;;;;;;5032554;28;20115;-60
2022/07/04 01:56:39;;;;;;;1.40;0.60;;;23.00;62.60;;;;;;5030823;28;20088;-60
2022/07/04 01:59:04;;;;;;;0.73;0.47;;;23.00;62.00;;;;;;5031550;28;20045;-60
2022/07/04 02:01:30;;;;;;;1.35;0.55;;;23.00;62.10;;;;;;5032110;28;20046;-60
2022/07/04 02:04:00;;;;;;;0.68;0.40;;;23.00;62.00;;;;;;5032231;28;20057;-60
2022/07/04 02:06:26;;;;;;;1.00;0.50;;;22.90;62.00;;;;;;5031896;28;20120;-60
2022/07/04 02:14:20;;;;;;;1.20;0.50;;;22.90;62.00;;;;;;5036468;28;20045;-60
2022/07/04 02:16:45;;;;;;;1.25;0.65;;;22.90;62.00;;;;;;5035079;28;20473;-60
2022/07/04 02:19:11;;;;;;;1.30;0.60;;;22.90;62.00;;;;;;5035313;28;20512;-60
2022/07/04 02:21:36;;;;;;;0.70;0.50;;;22.90;62.00;;;;;;5036178;28;20385;-60
2022/07/04 02:24:02;;;;;;;1.33;0.50;;;22.90;62.00;;;;;;5035203;28;20497;-60
2022/07/04 02:26:28;;;;;;;0.70;0.50;;;22.90;62.00;;;;;;5035214;28;20413;-61
2022/07/04 02:28:53;;;;;;;0.75;0.40;;;22.90;62.00;;;;;;5035458;28;20041;-61
2022/07/04 02:31:19;;;;;;;1.70;0.60;;;22.90;62.00;;;;;;5035594;28;20168;-60
2022/07/04 02:33:44;;;;;;;2.22;0.70;;;22.90;62.00;;;;;;5035009;28;20497;-59
2022/07/04 02:36:10;;;;;;;1.83;0.73;;;22.90;62.00;;;;;;5036225;28;20388;-60
2022/07/04 02:38:35;;;;;;;1.52;0.60;;;22.90;62.00;;;;;;5036279;28;20485;-61
2022/07/04 02:41:01;;;;;;;1.38;0.70;;;22.90;62.00;;;;;;5035228;28;20041;-60
2022/07/04 02:43:27;;;;;;;1.15;0.52;;;22.90;62.00;;;;;;5035759;28;20060;-60
2022/07/04 02:45:52;;;;;;;2.00;0.70;;;22.90;62.00;;;;;;5035269;28;20137;-59
2022/07/04 02:48:18;;;;;;;1.25;0.50;;;22.80;62.00;;;;;;5035152;28;20081;-60
2022/07/04 02:50:43;;;;;;;1.20;0.70;;;22.80;62.00;;;;;;5035548;28;20037;-60
2022/07/04 02:53:09;;;;;;;1.98;0.60;;;22.80;62.00;;;;;;5035771;28;20037;-60
2022/07/04 02:55:34;;;;;;;0.75;0.50;;;22.80;62.00;;;;;;5034662;28;20128;-59
2022/07/04 02:58:00;;;;;;;1.70;0.55;;;22.80;62.70;;;;;;5035199;28;20129;-59
2022/07/04 03:00:25;;;;;;;0.93;0.55;;;22.80;62.00;;;;;;5035245;28;20123;-59
2022/07/04 03:02:51;;;;;;;2.03;0.55;;;22.80;62.10;;;;;;5034540;28;20531;-59
2022/07/04 03:05:16;;;;;;;1.35;0.60;;;22.80;62.00;;;;;;5035532;28;20450;-59
2022/07/04 03:07:42;;;;;;;1.15;0.60;;;22.80;62.10;;;;;;5034558;28;20473;-59
2022/07/04 03:10:08;;;;;;;0.90;0.60;;;22.80;62.00;;;;;;5034024;28;20049;-60
2022/07/04 03:12:33;;;;;;;1.95;0.75;;;22.80;62.10;;;;;;5034795;28;20078;-60
2022/07/04 03:14:59;;;;;;;1.52;0.60;;;22.80;62.00;;;;;;5033610;28;20065;-59
2022/07/04 03:17:25;;;;;;;1.55;0.60;;;22.80;62.00;;;;;;5034886;28;20049;-59
2022/07/04 03:19:51;;;;;;;1.02;0.50;;;22.80;62.10;;;;;;5035069;28;20037;-60
2022/07/04 03:22:16;;;;;;;1.27;0.60;;;22.80;62.10;;;;;;5034226;28;20477;-60
2022/07/04 03:24:42;;;;;;;1.23;0.65;;;22.80;62.10;;;;;;5034868;28;20056;-60
2022/07/04 03:27:08;;;;;;;1.33;0.60;;;22.80;62.10;;;;;;5033905;28;20065;-60
2022/07/04 03:29:33;;;;;;;2.22;0.75;;;22.80;62.10;;;;;;5032586;28;20044;-59
2022/07/04 03:32:00;;;;;;;1.20;0.60;;;22.70;62.10;;;;;;5034824;28;20132;-59
2022/07/04 03:34:25;;;;;;;1.65;0.60;;;22.70;62.10;;;;;;5035052;28;20124;-59
2022/07/04 03:36:51;;;;;;;1.25;0.70;;;22.80;62.10;;;;;;5033833;28;20394;-59
2022/07/04 03:39:16;;;;;;;1.40;0.55;;;22.80;62.10;;;;;;5034568;28;20042;-59
2022/07/04 03:41:42;;;;;;;1.05;0.60;;;22.70;62.10;;;;;;5034442;28;20049;-60
2022/07/04 03:44:07;;;;;;;1.40;0.70;;;22.70;62.00;;;;;;5033796;28;20378;-60
2022/07/04 03:46:33;;;;;;;1.50;0.60;;;22.70;62.10;;;;;;5034081;28;20175;-60
2022/07/04 03:48:59;;;;;;;1.10;0.65;;;22.70;62.10;;;;;;5034278;28;20502;-60
2022/07/04 03:51:24;;;;;;;1.90;0.70;;;22.70;62.10;;;;;;5033795;28;20056;-60
2022/07/04 03:53:50;;;;;;;1.65;0.60;;;22.70;62.10;;;;;;5034242;28;20120;-60
2022/07/04 03:56:16;;;;;;;2.42;0.80;;;22.70;62.10;;;;;;5034463;28;20120;-60
2022/07/04 03:58:42;;;;;;;0.98;0.50;;;22.70;62.10;;;;;;5033119;28;20496;-60
2022/07/04 04:01:08;;;;;;;1.42;0.75;;;22.70;62.10;;;;;;5027683;28;20073;-60
2022/07/04 04:06:18;;;;;;;1.80;0.80;;;22.70;62.10;;;;;;5032790;28;20490;-61
2022/07/04 04:08:44;;;;;;;0.82;0.60;;;22.70;62.10;;;;;;5032465;28;20088;-60
2022/07/04 04:11:09;;;;;;;1.50;0.68;;;22.70;62.10;;;;;;5033501;28;20041;-60
2022/07/04 04:13:35;;;;;;;2.17;0.88;;;22.70;62.10;;;;;;5034004;28;20485;-60
2022/07/04 04:16:00;;;;;;;1.52;0.60;;;22.70;62.10;;;;;;5034080;28;20041;-60
2022/07/04 04:18:26;;;;;;;1.67;0.60;;;22.70;62.10;;;;;;5032066;28;20049;-60
2022/07/04 04:20:51;;;;;;;2.83;0.68;;;22.70;62.10;;;;;;5033797;28;20049;-60
2022/07/04 04:23:17;;;;;;;1.10;0.60;;;22.70;62.10;;;;;;5034060;28;20042;-60
2022/07/04 04:25:42;;;;;;;1.63;0.80;;;22.70;62.10;;;;;;5032619;28;20053;-59
2022/07/04 04:28:08;;;;;;;1.55;0.63;;;22.70;62.10;;;;;;5033890;28;20409;-59
2022/07/04 04:30:34;;;;;;;1.40;0.80;;;22.80;62.20;;;;;;5033575;28;20042;-59
2022/07/04 04:32:59;;;;;;;1.38;0.70;;;22.70;62.10;;;;;;5032666;28;20410;-59
2022/07/04 04:35:25;;;;;;;1.35;0.70;;;22.80;62.10;;;;;;5033777;28;20049;-60
2022/07/04 04:37:50;;;;;;;1.55;0.70;;;22.80;62.10;;;;;;5033359;28;20477;-59
2022/07/04 04:40:16;;;;;;;2.13;0.60;;;22.80;62.20;;;;;;5032797;28;20053;-59
2022/07/04 04:42:42;;;;;;;1.67;0.65;;;22.80;62.20;;;;;;5033023;28;20447;-59
2022/07/04 04:45:08;;;;;;;2.08;0.70;;;22.80;62.20;;;;;;5033495;28;20555;-60
2022/07/04 04:47:34;;;;;;;1.83;0.82;;;22.80;62.20;;;;;;5032900;28;20041;-59
2022/07/04 04:50:00;;;;;;;1.35;0.73;;;22.80;62.20;;;;;;5031224;28;20916;-59
2022/07/04 04:52:26;;;;;;;1.10;0.70;;;22.80;62.20;;;;;;5032913;28;20107;-59
2022/07/04 04:54:51;;;;;;;1.98;0.70;;;22.80;62.20;;;;;;5031407;28;20041;-60
2022/07/04 04:57:17;;;;;;;2.13;0.70;;;22.80;62.10;;;;;;5032684;28;20386;-60
2022/07/04 04:59:43;;;;;;;2.25;1.05;;;22.90;62.20;;;;;;5032626;28;20099;-60
2022/07/04 05:02:08;;;;;;;1.17;0.73;;;22.90;62.20;;;;;;5031059;28;20084;-60
2022/07/04 05:04:34;;;;;;;1.50;0.70;;;22.90;62.20;;;;;;5033291;28;20116;-60
2022/07/04 05:06:59;;;;;;;3.13;0.95;;;22.90;62.20;;;;;;5032928;28;20045;-60
2022/07/04 05:09:25;;;;;;;2.38;0.75;;;22.90;62.20;;;;;;5032557;28;20065;-61
2022/07/04 05:11:50;;;;;;;2.47;0.85;;;22.90;62.20;;;;;;5032419;28;20056;-60
2022/07/04 05:14:16;;;;;;;1.45;0.70;;;22.90;62.20;;;;;;5032731;28;20045;-61
2022/07/04 05:16:42;;;;;;;1.63;0.90;;;22.90;62.10;;;;;;5031618;28;20056;-60
2022/07/04 05:19:07;;;;;;;1.90;0.70;;;22.90;62.10;;;;;;5032746;28;20529;-61
2022/07/04 05:21:33;;;;;;;1.40;0.60;;;22.90;62.10;;;;;;5030545;28;20511;-60
2022/07/04 05:23:59;;;;;;;0.95;0.60;;;23.00;62.20;;;;;;5032371;28;20425;-61
2022/07/04 05:26:24;;;;;;;2.63;0.73;;;23.00;62.20;;;;;;5031243;28;20671;-60
2022/07/04 05:28:50;;;;;;;2.35;0.73;;;23.00;62.10;;;;;;5031636;28;20078;-60
2022/07/04 05:31:15;;;;;;;2.00;0.70;;;23.00;62.10;;;;;;5032679;28;20502;-60
2022/07/04 05:33:41;;;;;;;1.48;0.70;;;23.00;62.10;;;;;;5032360;28;20073;-60
2022/07/04 05:36:07;;;;;;;2.38;0.75;;;23.00;62.10;;;;;;5030515;28;20053;-60
2022/07/04 05:38:32;;;;;;;1.25;0.70;;;23.00;62.10;;;;;;5032699;28;20130;-60
2022/07/04 05:40:58;;;;;;;1.48;0.70;;;23.00;62.00;;;;;;5031657;28;20037;-61
2022/07/04 05:43:25;;;;;;;2.05;0.63;;;23.00;62.00;;;;;;5031508;28;20076;-60
2022/07/04 05:45:51;;;;;;;2.03;0.80;;;23.00;62.10;;;;;;5032394;28;20171;-61
2022/07/04 05:48:17;;;;;;;2.13;0.75;;;23.00;62.10;;;;;;5032593;28;20124;-60
2022/07/04 05:50:42;;;;;;;2.45;0.88;;;23.10;62.20;;;;;;5031351;28;20143;-60
2022/07/04 05:53:08;;;;;;;2.38;0.70;;;23.10;62.20;;;;;;5032677;28;20186;-60
2022/07/04 05:55:34;;;;;;;1.67;0.70;;;23.10;62.20;;;;;;5031941;28;20057;-60
2022/07/04 05:58:00;;;;;;;2.10;0.88;;;23.10;62.20;;;;;;5031263;28;20047;-60
2022/07/04 06:00:25;;;;;;;1.25;0.70;;;23.10;62.20;;;;;;5031110;28;20045;-60
2022/07/04 06:02:51;;;;;;;2.28;1.05;;;23.10;62.10;;;;;;5032190;28;20065;-60
2022/07/04 06:05:16;;;;;;;2.45;0.70;;;23.10;62.10;;;;;;5031761;28;20053;-60
2022/07/04 06:07:42;;;;;;;1.52;0.70;;;23.10;62.10;;;;;;5031762;28;20084;-60
2022/07/04 06:10:08;;;;;;;2.17;0.73;;;23.10;62.10;;;;;;5032021;28;20413;-60
2022/07/04 06:12:34;;;;;;;1.85;0.65;;;23.10;62.20;;;;;;5031509;28;20080;-60
2022/07/04 06:14:59;;;;;;;3.13;0.70;;;23.10;62.10;;;;;;5032070;28;20493;-60
2022/07/04 06:17:25;;;;;;;2.22;0.80;;;23.20;62.20;;;;;;5030750;28;20497;-60
2022/07/04 06:19:51;;;;;;;1.92;0.77;;;23.10;62.10;;;;;;5030868;28;20052;-60
2022/07/04 06:22:16;;;;;;;1.45;1.00;;;23.20;62.20;;;;;;5032234;28;20053;-60
2022/07/04 06:24:42;;;;;;;4.00;0.77;;;23.20;62.10;;;;;;5031880;28;20052;-60
2022/07/04 06:27:07;;;;;;;1.63;0.77;;;23.20;62.00;;;;;;5031025;28;20053;-60
2022/07/04 06:29:33;;;;;;;2.60;0.73;;;23.20;62.00;;;;;;5032139;28;20057;-60
2022/07/04 06:31:58;;;;;;;1.98;0.60;;;23.20;62.00;;;;;;5029794;28;20041;-60
2022/07/04 06:37:08;;;;;;;1.85;0.70;;;23.20;62.00;;;;;;5031855;28;20046;-60
2022/07/04 06:39:33;;;;;;;2.35;0.88;;;23.10;61.90;;;;;;5031574;28;20072;-60
2022/07/04 06:41:59;;;;;;;1.88;0.85;;;23.10;61.90;;;;;;5031968;28;20046;-60
2022/07/04 06:44:24;;;;;;;3.05;0.90;;;23.10;61.90;;;;;;5031889;28;20096;-60
2022/07/04 06:46:50;;;;;;;2.35;0.90;;;23.10;62.10;;;;;;5031031;28;20128;-60
2022/07/04 06:49:16;;;;;;;2.25;0.93;;;23.10;62.10;;;;;;5032002;28;20050;-60
2022/07/04 06:51:42;;;;;;;2.97;0.90;;;23.10;62.20;;;;;;5031464;28;20038;-59
2022/07/04 06:54:07;;;;;;;4.55;0.80;;;23.10;62.30;;;;;;5034242;28;20141;-60
2022/07/04 06:56:33;;;;;;;3.08;0.80;;;23.10;62.30;;;;;;5035590;28;20045;-59
2022/07/04 06:58:59;;;;;;;5.28;0.98;;;23.10;62.40;;;;;;5035247;28;20048;-59
2022/07/04 07:01:24;;;;;;;3.40;0.90;;;23.10;62.40;;;;;;5034695;28;20415;-59
2022/07/04 07:03:50;;;;;;;1.58;0.60;;;23.10;62.40;;;;;;5035142;28;20045;-59
2022/07/04 07:06:16;;;;;;;4.93;0.70;;;23.10;62.40;;;;;;5035307;28;20053;-59
2022/07/04 07:08:41;;;;;;;2.22;0.80;;;23.10;62.50;;;;;;5034336;28;20363;-60
2022/07/04 07:11:13;;;;;;;2.33;0.73;;;23.10;62.60;;;;;;5035340;28;20049;-60
2022/07/04 07:13:43;;;;;;;1.88;0.65;;;23.20;62.60;;;;;;5034879;28;20045;-59
2022/07/04 07:16:08;;;;;;;1.67;0.75;;;23.10;63.20;;;;;;5033051;28;20049;-58
2022/07/04 07:18:34;;;;;;;1.85;0.80;;;23.10;62.60;;;;;;5034754;28;20037;-59
2022/07/04 07:20:59;;;;;;;3.08;0.95;;;23.10;62.60;;;;;;5034661;28;20597;-59
2022/07/04 07:23:25;;;;;;;4.30;0.88;;;23.10;62.60;;;;;;5034609;28;20091;-59
2022/07/04 07:25:50;;;;;;;2.53;1.00;;;23.10;62.60;;;;;;5034659;28;20061;-59
2022/07/04 07:28:16;;;;;;;1.80;0.70;;;23.20;62.60;;;;;;5033719;28;20095;-59
2022/07/04 07:30:42;;;;;;;3.63;0.60;;;23.20;62.60;;;;;;5034870;28;20052;-62
2022/07/04 07:33:07;;;;;;;3.35;0.70;;;23.20;62.60;;;;;;5035115;28;20041;-59
2022/07/04 07:35:33;;;;;;;2.28;0.90;;;23.20;62.60;;;;;;5033895;28;20046;-62
2022/07/04 07:37:58;;;;;;;3.38;1.13;;;23.20;62.40;;;;;;5034325;28;20099;-60
2022/07/04 07:40:24;;;;;;;4.53;1.00;;;23.10;62.20;;;;;;5033488;28;20033;-60
2022/07/04 07:42:50;;;;;;;4.68;1.17;;;23.10;61.80;;;;;;5033277;28;20485;-60
2022/07/04 07:45:15;;;;;;;6.13;1.33;;;23.20;61.50;;;;;;5034442;28;20048;-61
2022/07/04 07:47:41;;;;;;;4.20;1.10;;;23.10;61.20;;;;;;5034048;28;20038;-59
2022/07/04 07:50:07;;;;;;;7.40;1.30;;;23.10;61.10;;;;;;5033658;28;20045;-60
2022/07/04 07:52:32;;;;;;;5.05;1.30;;;23.10;60.90;;;;;;5034763;28;20033;-60
2022/07/04 07:54:58;;;;;;;3.97;1.02;;;23.10;61.00;;;;;;5032790;28;20077;-60
2022/07/04 07:57:23;;;;;;;4.20;0.98;;;23.10;61.10;;;;;;5033177;28;20049;-61
2022/07/04 07:59:49;;;;;;;4.47;1.30;;;23.10;61.10;;;;;;5034120;28;20125;-60
2022/07/04 08:02:15;;;;;;;6.03;1.27;;;23.10;61.10;;;;;;5034369;28;20041;-59
2022/07/04 08:04:41;;;;;;;5.43;1.20;;;23.10;61.30;;;;;;5032242;28;20167;-61
2022/07/04 08:07:11;;;;;;;3.10;0.90;;;23.10;61.20;;;;;;5034047;28;20049;-60
2022/07/04 08:09:37;;;;;;;3.25;0.82;;;23.10;61.40;;;;;;5034137;28;20048;-60
2022/07/04 08:12:04;;;;;;;5.78;0.88;;;23.20;61.30;;;;;;5033289;28;20049;-60
2022/07/04 08:14:29;;;;;;;3.10;0.98;;;23.10;61.20;;;;;;5032912;28;20052;-60
2022/07/04 08:16:56;;;;;;;6.32;1.00;;;23.20;61.30;;;;;;5034134;28;20128;-60
2022/07/04 08:19:22;;;;;;;3.70;0.85;;;23.20;61.30;;;;;;5033487;28;20057;-59
2022/07/04 08:21:47;;;;;;;3.45;0.80;;;23.10;61.20;;;;;;5033811;28;20049;-59
2022/07/04 08:24:14;;;;;;;6.30;1.10;;;23.20;61.30;;;;;;5032839;28;20371;-59
2022/07/04 08:26:40;;;;;;;5.35;1.00;;;23.20;61.30;;;;;;5032291;28;20059;-59
2022/07/04 08:29:06;;;;;;;3.65;0.80;;;23.10;61.30;;;;;;5033159;28;20045;-58
2022/07/04 08:31:31;;;;;;;3.55;0.80;;;23.20;61.40;;;;;;5031801;28;20037;-59
2022/07/04 08:33:57;;;;;;;3.03;0.63;;;23.10;61.40;;;;;;5033209;28;20037;-58
2022/07/04 08:36:22;;;;;;;4.45;0.90;;;23.10;61.50;;;;;;5033052;28;20045;-58
2022/07/04 08:38:48;;;;;;;4.00;0.80;;;23.10;61.50;;;;;;5032143;28;20387;-58
2022/07/04 08:41:15;;;;;;;4.15;0.80;;;23.10;61.60;;;;;;5031490;28;20587;-59
2022/07/04 08:43:41;;;;;;;2.63;0.67;;;23.10;61.60;;;;;;5032876;28;20053;-59
2022/07/04 08:46:07;;;;;;;5.78;1.27;;;23.10;61.70;;;;;;5032982;28;20045;-59
2022/07/04 08:48:33;;;;;;;3.08;0.88;;;23.10;61.70;;;;;;5032071;28;20045;-59
2022/07/04 08:51:12;;;;;;;3.08;0.80;;;23.10;61.70;;;;;;5032789;28;20056;-59
2022/07/04 08:53:39;;;;;;;5.25;0.90;;;23.10;61.70;;;;;;5030637;28;20049;-60
2022/07/04 08:58:49;;;;;;;3.78;0.88;;;23.10;61.80;;;;;;5032251;28;20061;-59
2022/07/04 09:01:15;;;;;;;3.42;0.70;;;23.20;61.90;;;;;;5030198;28;20046;-58
2022/07/04 09:03:42;;;;;;;2.03;0.63;;;23.10;61.80;;;;;;5031863;28;20124;-59
2022/07/04 09:06:07;;;;;;;3.75;0.80;;;23.10;61.70;;;;;;5033251;28;20041;-59
2022/07/04 09:08:33;;;;;;;5.55;1.00;;;23.10;61.70;;;;;;5032439;28;20045;-57
2022/07/04 09:10:58;;;;;;;2.22;0.70;;;23.20;61.60;;;;;;5032884;28;20049;-57
2022/07/04 09:13:24;;;;;;;3.22;0.70;;;23.20;61.50;;;;;;5031733;28;20037;-59
2022/07/04 09:15:50;;;;;;;3.83;0.75;;;23.10;61.40;;;;;;5031992;28;20045;-59
2022/07/04 09:18:22;;;;;;;4.32;1.10;;;23.20;61.40;;;;;;5033307;28;20049;-58
2022/07/04 09:20:47;;;;;;;5.20;1.00;;;23.20;61.30;;;;;;5030739;28;20478;-58
2022/07/04 09:23:18;;;;;;;4.15;1.10;;;23.20;61.30;;;;;;5031753;28;20172;-58
2022/07/04 09:25:44;;;;;;;4.25;0.93;;;23.20;61.30;;;;;;5032406;28;20063;-59
2022/07/04 09:28:09;;;;;;;5.47;1.10;;;23.20;61.30;;;;;;5032087;28;20054;-59
2022/07/04 09:30:35;;;;;;;11.25;1.20;;;23.20;61.20;;;;;;5032965;28;20037;-59
2022/07/04 09:33:00;;;;;;;3.47;0.80;;;23.20;61.10;;;;;;5030889;28;20056;-59
2022/07/04 09:35:27;;;;;;;5.15;1.08;;;23.20;61.10;;;;;;5032143;28;20124;-58
2022/07/04 09:37:55;;;;;;;4.18;1.00;;;23.20;61.20;;;;;;5032429;28;20038;-58
2022/07/04 09:43:35;;;;;;;5.18;1.30;;;23.20;61.60;;;;;;5032246;28;20455;-59
2022/07/04 09:46:01;;;;;;;3.35;1.00;;;23.20;61.10;;;;;;5031063;28;20120;-62
2022/07/04 09:48:47;;;;;;;3.47;0.88;;;23.20;61.20;;;;;;5031811;28;20041;-59
2022/07/04 09:51:12;;;;;;;6.22;0.90;;;23.20;61.20;;;;;;5012057;28;20058;-59
2022/07/04 09:53:38;;;;;;;4.30;1.15;;;23.20;61.40;;;;;;5013062;28;20064;-60
2022/07/04 09:56:03;;;;;;;4.32;0.95;;;23.20;61.50;;;;;;5011566;28;20132;-60
2022/07/04 09:58:29;;;;;;;4.43;1.00;;;23.20;61.60;;;;;;5015289;28;20179;-59
2022/07/04 10:00:59;;;;;;;5.13;1.00;;;23.20;61.60;;;;;;5031736;28;20049;-59
2022/07/04 10:03:26;;;;;;;4.72;0.93;;;23.20;61.90;;;;;;5031153;28;20048;-59
2022/07/04 10:06:11;;;;;;;2.80;0.90;;;23.20;61.90;;;;;;5031629;28;20133;-59
2022/07/04 10:08:37;;;;;;;2.15;0.80;;;23.20;62.00;;;;;;5031755;28;20068;-59
2022/07/04 10:11:03;;;;;;;5.70;1.40;;;23.20;62.10;;;;;;5029959;28;20095;-59
2022/07/04 10:13:30;;;;;;;4.72;1.00;;;23.20;62.20;;;;;;5030208;28;20045;-59
2022/07/04 10:15:55;;;;;;;4.32;0.80;;;23.20;62.20;;;;;;5031019;28;20048;-58
2022/07/04 10:18:22;;;;;;;4.72;1.00;;;23.20;62.20;;;;;;5030574;28;20046;-59
2022/07/04 10:20:49;;;;;;;6.43;1.20;;;23.30;62.30;;;;;;5031768;28;20041;-59
2022/07/04 10:23:14;;;;;;;3.28;0.95;;;23.30;62.20;;;;;;5030958;28;20386;-60
2022/07/04 10:25:41;;;;;;;3.92;1.10;;;23.30;62.20;;;;;;5030719;28;20039;-60
2022/07/04 10:28:07;;;;;;;3.70;1.02;;;23.30;62.20;;;;;;5031968;28;20041;-59
2022/07/04 10:30:37;;;;;;;3.47;0.90;;;23.30;62.20;;;;;;5068034;28;20470;-59
2022/07/04 10:33:04;;;;;;;5.20;0.80;;;23.30;62.40;;;;;;5034959;28;20520;-59
2022/07/04 10:35:49;;;;;;;3.80;0.70;;;23.30;62.40;;;;;;5034679;28;20513;-59
2022/07/04 10:38:16;;;;;;;4.22;1.02;;;23.30;62.20;;;;;;5035148;28;20400;-59
2022/07/04 10:40:52;;;;;;;3.30;1.13;;;23.40;62.20;;;;;;5035427;28;20041;-60
2022/07/04 10:43:42;;;;;;;2.95;0.70;;;23.40;62.10;;;;;;5035815;28;20049;-59
2022/07/04 10:46:13;;;;;;;3.25;0.75;;;23.40;62.00;;;;;;5035035;28;20049;-60
2022/07/04 10:48:58;;;;;;;3.72;1.00;;;23.40;61.90;;;;;;5035455;28;20067;-59
2022/07/04 10:51:38;;;;;;;2.13;0.68;;;23.40;61.70;;;;;;5035029;28;20048;-60
2022/07/04 10:54:20;;;;;;;3.30;0.70;;;23.40;61.60;;;;;;5035084;28;20072;-59
2022/07/04 10:56:55;;;;;;;2.13;0.80;;;23.40;61.40;;;;;;5035495;28;20041;-59
2022/07/04 10:59:25;;;;;;;3.00;0.90;;;23.40;61.20;;;;;;5034677;28;20120;-59
2022/07/04 11:01:53;;;;;;;2.40;0.80;;;23.40;61.10;;;;;;5035141;28;20493;-59
2022/07/04 11:04:56;;;;;;;2.78;0.90;;;23.40;61.00;;;;;;5035781;28;20045;-59
2022/07/04 11:07:41;;;;;;;2.25;0.70;;;23.40;60.90;;;;;;5034509;28;20053;-60
2022/07/04 11:10:13;;;;;;;3.70;0.85;;;23.40;60.70;;;;;;5034798;28;20128;-60
2022/07/04 11:12:56;;;;;;;2.25;0.73;;;23.40;60.60;;;;;;5034907;28;20394;-60
2022/07/04 11:15:28;;;;;;;2.53;0.90;;;23.40;60.30;;;;;;5034745;28;20041;-60
2022/07/04 11:17:54;;;;;;;2.55;0.90;;;23.40;60.20;;;;;;5035246;28;20100;-59
2022/07/04 11:20:20;;;;;;;3.17;0.88;;;23.40;60.00;;;;;;5034602;28;20045;-60
2022/07/04 11:22:46;;;;;;;2.63;0.77;;;23.40;60.00;;;;;;5035011;28;20088;-59
2022/07/04 11:25:11;;;;;;;2.33;0.75;;;23.40;59.90;;;;;;5035582;28;20041;-59
2022/07/04 11:27:38;;;;;;;2.20;0.70;;;23.40;59.80;;;;;;5034121;28;20054;-59
2022/07/04 11:30:04;;;;;;;5.22;1.00;;;23.40;59.60;;;;;;5033558;28;20505;-59
2022/07/04 11:32:30;;;;;;;3.05;0.93;;;23.40;59.80;;;;;;5034147;28;20073;-59
2022/07/04 11:34:56;;;;;;;2.45;0.95;;;23.40;59.60;;;;;;5033624;28;20124;-59
2022/07/04 11:37:21;;;;;;;5.13;0.80;;;23.40;59.60;;;;;;5034534;28;20172;-59
2022/07/04 11:39:51;;;;;;;3.13;0.75;;;23.40;59.70;;;;;;5033037;28;20503;-59
2022/07/04 11:45:05;;;;;;;1.80;0.70;;;23.40;59.60;;;;;;5033943;28;20072;-59
2022/07/04 11:47:42;;;;;;;3.53;1.20;;;23.40;59.50;;;;;;5033973;28;20095;-60
2022/07/04 11:50:13;;;;;;;2.97;1.17;;;23.40;59.40;;;;;;5032190;28;20053;-59
2022/07/04 11:52:41;;;;;;;2.85;0.70;;;23.40;59.20;;;;;;5033650;28;20049;-61
2022/07/04 11:55:09;;;;;;;1.50;0.73;;;23.40;59.20;;;;;;5034148;28;20037;-60
2022/07/04 11:57:38;;;;;;;2.97;0.80;;;23.40;59.10;;;;;;5033539;28;20512;-60
2022/07/04 12:00:09;;;;;;;2.33;0.60;;;23.40;58.90;;;;;;5033386;28;20045;-59
2022/07/04 12:02:34;;;;;;;2.85;1.15;;;23.40;58.70;;;;;;5033459;28;20128;-60
2022/07/04 12:05:02;;;;;;;1.63;0.60;;;23.40;58.50;;;;;;5033725;28;20176;-59
2022/07/04 12:07:28;;;;;;;2.10;0.65;;;23.40;58.30;;;;;;5033836;28;20053;-59
2022/07/04 12:09:54;;;;;;;3.40;0.90;;;23.40;58.20;;;;;;5032915;28;20042;-59
2022/07/04 12:12:21;;;;;;;1.98;0.80;;;23.40;58.10;;;;;;5033682;28;20517;-60
2022/07/04 12:15:03;;;;;;;1.92;0.80;;;23.40;58.10;;;;;;5032762;28;20485;-60
2022/07/04 12:17:30;;;;;;;2.67;0.80;;;23.50;58.00;;;;;;5032700;28;20121;-60
2022/07/04 12:20:09;;;;;;;2.55;0.77;;;23.50;58.00;;;;;;5051916;28;20041;-60
2022/07/04 12:22:42;;;;;;;2.42;0.60;;;23.50;57.90;;;;;;5033202;28;20057;-60
2022/07/04 12:25:29;;;;;;;2.50;1.00;;;23.50;57.90;;;;;;5032779;28;20435;-60
2022/07/04 12:28:00;;;;;;;2.17;0.70;;;23.50;57.70;;;;;;5033282;28;20041;-59
2022/07/04 12:30:26;;;;;;;2.28;0.77;;;23.50;57.60;;;;;;5032944;28;20057;-59
2022/07/04 12:32:53;;;;;;;1.23;0.70;;;23.50;57.50;;;;;;5032114;28;20076;-60
2022/07/04 12:36:00;;;;;;;2.97;0.70;;;23.50;57.50;;;;;;5033340;28;20060;-60
2022/07/04 12:38:29;;;;;;;2.65;0.70;;;23.50;57.40;;;;;;5041138;28;20056;-60
2022/07/04 12:40:58;;;;;;;1.38;0.57;;;23.50;57.40;;;;;;5033156;28;20072;-60
2022/07/04 12:43:50;;;;;;;1.75;0.77;;;23.50;57.30;;;;;;5032995;28;20060;-60
2022/07/04 12:46:24;;;;;;;2.58;0.70;;;23.50;57.30;;;;;;5030893;28;20055;-59
2022/07/04 12:48:53;;;;;;;2.40;0.70;;;23.50;57.30;;;;;;5031552;28;20048;-60
2022/07/04 12:51:20;;;;;;;1.55;0.50;;;23.50;57.30;;;;;;5032610;28;20045;-60
2022/07/04 12:53:46;;;;;;;1.17;0.50;;;23.50;57.20;;;;;;5031917;28;20126;-60
2022/07/04 12:56:32;;;;;;;1.10;0.60;;;23.50;57.20;;;;;;5032628;28;20447;-60
2022/07/04 12:59:02;;;;;;;1.88;0.93;;;23.50;57.20;;;;;;5031109;28;20838;-59
2022/07/04 13:01:27;;;;;;;2.15;0.60;;;23.50;57.00;;;;;;5032987;28;20135;-60
2022/07/04 13:03:53;;;;;;;2.22;0.85;;;23.50;57.00;;;;;;5032616;28;20080;-59
2022/07/04 13:06:19;;;;;;;1.10;0.80;;;23.50;57.00;;;;;;5031380;28;20056;-59
2022/07/04 13:08:45;;;;;;;2.28;0.70;;;23.50;57.00;;;;;;5032074;28;20077;-59